sensor_id;sensor_type;location;lat;lon;timestamp;P1;durP1;ratioP1;P2;durP2;ratioP2
68188;SDS011;66299;47.514;19.218;2023-05-10T00:01:40;14.73;;;3.80;;
68188;SDS011;66299;47.514;19.218;2023-05-10T00:04:11;10.80;;;3.70;;
68188;SDS011;66299;47.514;19.218;2023-05-10T00:06:41;8.93;;;3.88;;
68188;SDS011;66299;47.514;19.218;2023-05-10T00:09:14;11.77;;;3.90;;
68188;SDS011;66299;47.514;19.218;2023-05-10T00:11:43;10.88;;;4.18;;
68188;SDS011;66299;47.514;19.218;2023-05-10T00:14:13;9.60;;;3.83;;
68188;SDS011;66299;47.514;19.218;2023-05-10T00:16:41;11.02;;;4.25;;
68188;SDS011;66299;47.514;19.218;2023-05-10T00:19:13;9.23;;;4.13;;
68188;SDS011;66299;47.514;19.218;2023-05-10T00:21:42;10.52;;;4.15;;
68188;SDS011;66299;47.514;19.218;2023-05-10T00:24:11;9.55;;;4.05;;
68188;SDS011;66299;47.514;19.218;2023-05-10T00:26:43;11.63;;;4.13;;
68188;SDS011;66299;47.514;19.218;2023-05-10T00:29:13;9.27;;;3.97;;
68188;SDS011;66299;47.514;19.218;2023-05-10T00:31:42;8.98;;;4.22;;
68188;SDS011;66299;47.514;19.218;2023-05-10T00:34:10;10.38;;;4.28;;
68188;SDS011;66299;47.514;19.218;2023-05-10T00:36:41;11.35;;;4.30;;
68188;SDS011;66299;47.514;19.218;2023-05-10T00:39:10;10.82;;;4.75;;
68188;SDS011;66299;47.514;19.218;2023-05-10T00:41:44;10.55;;;4.40;;
68188;SDS011;66299;47.514;19.218;2023-05-10T00:44:14;10.43;;;4.30;;
68188;SDS011;66299;47.514;19.218;2023-05-10T00:46:43;10.55;;;4.35;;
68188;SDS011;66299;47.514;19.218;2023-05-10T00:49:16;9.50;;;4.32;;
68188;SDS011;66299;47.514;19.218;2023-05-10T00:51:48;10.13;;;4.40;;
68188;SDS011;66299;47.514;19.218;2023-05-10T00:54:21;9.80;;;4.53;;
68188;SDS011;66299;47.514;19.218;2023-05-10T00:56:51;10.68;;;4.85;;
68188;SDS011;66299;47.514;19.218;2023-05-10T00:59:20;9.85;;;4.60;;
68188;SDS011;66299;47.514;19.218;2023-05-10T01:01:49;11.02;;;4.80;;
68188;SDS011;66299;47.514;19.218;2023-05-10T01:04:20;11.10;;;4.47;;
68188;SDS011;66299;47.514;19.218;2023-05-10T01:06:53;11.43;;;4.80;;
68188;SDS011;66299;47.514;19.218;2023-05-10T01:09:23;9.60;;;4.60;;
68188;SDS011;66299;47.514;19.218;2023-05-10T01:11:57;13.32;;;4.80;;
68188;SDS011;66299;47.514;19.218;2023-05-10T01:14:30;10.07;;;4.57;;
68188;SDS011;66299;47.514;19.218;2023-05-10T01:16:58;10.13;;;4.53;;
68188;SDS011;66299;47.514;19.218;2023-05-10T01:19:30;9.82;;;4.70;;
68188;SDS011;66299;47.514;19.218;2023-05-10T01:22:04;11.02;;;4.75;;
68188;SDS011;66299;47.514;19.218;2023-05-10T01:24:50;10.45;;;4.70;;
68188;SDS011;66299;47.514;19.218;2023-05-10T01:27:44;8.98;;;4.13;;
68188;SDS011;66299;47.514;19.218;2023-05-10T01:33:25;10.10;;;4.40;;
68188;SDS011;66299;47.514;19.218;2023-05-10T01:35:58;10.35;;;4.65;;
68188;SDS011;66299;47.514;19.218;2023-05-10T01:38:41;9.48;;;4.40;;
68188;SDS011;66299;47.514;19.218;2023-05-10T01:41:17;9.98;;;4.93;;
68188;SDS011;66299;47.514;19.218;2023-05-10T01:43:50;11.82;;;4.63;;
68188;SDS011;66299;47.514;19.218;2023-05-10T01:46:26;10.65;;;4.70;;
68188;SDS011;66299;47.514;19.218;2023-05-10T01:49:01;10.13;;;4.80;;
68188;SDS011;66299;47.514;19.218;2023-05-10T01:51:35;10.10;;;5.05;;
68188;SDS011;66299;47.514;19.218;2023-05-10T01:54:07;10.75;;;5.00;;
68188;SDS011;66299;47.514;19.218;2023-05-10T01:56:44;9.48;;;4.45;;
68188;SDS011;66299;47.514;19.218;2023-05-10T01:59:16;13.55;;;4.60;;
68188;SDS011;66299;47.514;19.218;2023-05-10T02:01:46;10.45;;;4.60;;
68188;SDS011;66299;47.514;19.218;2023-05-10T02:04:20;11.27;;;4.68;;
68188;SDS011;66299;47.514;19.218;2023-05-10T02:06:53;10.63;;;4.72;;
68188;SDS011;66299;47.514;19.218;2023-05-10T02:09:23;11.18;;;4.18;;
68188;SDS011;66299;47.514;19.218;2023-05-10T02:11:54;10.30;;;4.65;;
68188;SDS011;66299;47.514;19.218;2023-05-10T02:14:25;13.85;;;4.50;;
68188;SDS011;66299;47.514;19.218;2023-05-10T02:16:58;14.30;;;4.68;;
68188;SDS011;66299;47.514;19.218;2023-05-10T02:19:32;10.15;;;4.70;;
68188;SDS011;66299;47.514;19.218;2023-05-10T02:22:01;10.50;;;4.53;;
68188;SDS011;66299;47.514;19.218;2023-05-10T02:24:37;10.95;;;4.65;;
68188;SDS011;66299;47.514;19.218;2023-05-10T02:27:09;11.23;;;4.75;;
68188;SDS011;66299;47.514;19.218;2023-05-10T02:29:40;10.27;;;4.88;;
68188;SDS011;66299;47.514;19.218;2023-05-10T02:32:09;9.95;;;4.95;;
68188;SDS011;66299;47.514;19.218;2023-05-10T02:34:45;9.48;;;4.53;;
68188;SDS011;66299;47.514;19.218;2023-05-10T02:37:21;12.73;;;4.68;;
68188;SDS011;66299;47.514;19.218;2023-05-10T02:39:56;10.52;;;4.85;;
68188;SDS011;66299;47.514;19.218;2023-05-10T02:42:27;9.10;;;4.70;;
68188;SDS011;66299;47.514;19.218;2023-05-10T02:45:04;10.02;;;4.55;;
68188;SDS011;66299;47.514;19.218;2023-05-10T02:47:38;9.57;;;4.57;;
68188;SDS011;66299;47.514;19.218;2023-05-10T02:50:09;10.02;;;4.60;;
68188;SDS011;66299;47.514;19.218;2023-05-10T02:52:40;11.55;;;4.70;;
68188;SDS011;66299;47.514;19.218;2023-05-10T02:55:19;9.82;;;4.70;;
68188;SDS011;66299;47.514;19.218;2023-05-10T02:57:55;11.32;;;4.80;;
68188;SDS011;66299;47.514;19.218;2023-05-10T03:00:28;11.32;;;4.93;;
68188;SDS011;66299;47.514;19.218;2023-05-10T03:02:57;10.98;;;4.85;;
68188;SDS011;66299;47.514;19.218;2023-05-10T03:05:27;11.77;;;5.00;;
68188;SDS011;66299;47.514;19.218;2023-05-10T03:07:59;9.63;;;4.60;;
68188;SDS011;66299;47.514;19.218;2023-05-10T03:10:38;10.52;;;5.00;;
68188;SDS011;66299;47.514;19.218;2023-05-10T03:13:21;12.45;;;5.10;;
68188;SDS011;66299;47.514;19.218;2023-05-10T03:16:05;11.30;;;4.63;;
68188;SDS011;66299;47.514;19.218;2023-05-10T03:18:40;10.65;;;4.88;;
68188;SDS011;66299;47.514;19.218;2023-05-10T03:21:15;9.30;;;4.60;;
68188;SDS011;66299;47.514;19.218;2023-05-10T03:23:48;11.95;;;5.00;;
68188;SDS011;66299;47.514;19.218;2023-05-10T03:26:23;10.48;;;4.90;;
68188;SDS011;66299;47.514;19.218;2023-05-10T03:28:55;11.15;;;5.55;;
68188;SDS011;66299;47.514;19.218;2023-05-10T03:31:30;11.75;;;5.35;;
68188;SDS011;66299;47.514;19.218;2023-05-10T03:34:03;11.40;;;5.60;;
68188;SDS011;66299;47.514;19.218;2023-05-10T03:36:34;11.50;;;5.45;;
68188;SDS011;66299;47.514;19.218;2023-05-10T03:39:06;11.18;;;5.43;;
68188;SDS011;66299;47.514;19.218;2023-05-10T03:41:35;10.52;;;5.70;;
68188;SDS011;66299;47.514;19.218;2023-05-10T03:44:08;11.80;;;5.45;;
68188;SDS011;66299;47.514;19.218;2023-05-10T03:46:37;12.43;;;5.22;;
68188;SDS011;66299;47.514;19.218;2023-05-10T03:49:05;10.43;;;5.50;;
68188;SDS011;66299;47.514;19.218;2023-05-10T03:51:37;11.15;;;5.70;;
68188;SDS011;66299;47.514;19.218;2023-05-10T03:54:05;11.23;;;5.93;;
68188;SDS011;66299;47.514;19.218;2023-05-10T03:56:34;12.18;;;5.45;;
68188;SDS011;66299;47.514;19.218;2023-05-10T03:59:03;12.50;;;5.68;;
68188;SDS011;66299;47.514;19.218;2023-05-10T04:01:35;10.13;;;5.43;;
68188;SDS011;66299;47.514;19.218;2023-05-10T04:04:06;10.85;;;5.65;;
68188;SDS011;66299;47.514;19.218;2023-05-10T04:06:37;12.85;;;6.00;;
68188;SDS011;66299;47.514;19.218;2023-05-10T04:09:07;15.18;;;5.88;;
68188;SDS011;66299;47.514;19.218;2023-05-10T04:11:35;12.07;;;6.10;;
68188;SDS011;66299;47.514;19.218;2023-05-10T04:14:05;11.13;;;6.00;;
68188;SDS011;66299;47.514;19.218;2023-05-10T04:16:34;13.25;;;6.35;;
68188;SDS011;66299;47.514;19.218;2023-05-10T04:19:04;14.75;;;6.47;;
68188;SDS011;66299;47.514;19.218;2023-05-10T04:21:32;15.60;;;6.65;;
68188;SDS011;66299;47.514;19.218;2023-05-10T04:24:06;15.40;;;6.53;;
68188;SDS011;66299;47.514;19.218;2023-05-10T04:26:34;15.52;;;6.55;;
68188;SDS011;66299;47.514;19.218;2023-05-10T04:29:02;12.05;;;6.30;;
68188;SDS011;66299;47.514;19.218;2023-05-10T04:31:31;13.95;;;6.60;;
68188;SDS011;66299;47.514;19.218;2023-05-10T04:33:59;12.32;;;6.40;;
68188;SDS011;66299;47.514;19.218;2023-05-10T04:36:29;15.75;;;6.63;;
68188;SDS011;66299;47.514;19.218;2023-05-10T04:39:00;13.07;;;6.35;;
68188;SDS011;66299;47.514;19.218;2023-05-10T04:41:30;17.38;;;6.38;;
68188;SDS011;66299;47.514;19.218;2023-05-10T04:44:05;14.82;;;6.78;;
68188;SDS011;66299;47.514;19.218;2023-05-10T04:46:33;12.25;;;6.78;;
68188;SDS011;66299;47.514;19.218;2023-05-10T04:49:13;11.77;;;6.13;;
68188;SDS011;66299;47.514;19.218;2023-05-10T04:51:47;12.52;;;6.60;;
68188;SDS011;66299;47.514;19.218;2023-05-10T04:54:16;12.32;;;6.38;;
68188;SDS011;66299;47.514;19.218;2023-05-10T04:56:47;11.98;;;6.35;;
68188;SDS011;66299;47.514;19.218;2023-05-10T04:59:15;12.65;;;6.45;;
68188;SDS011;66299;47.514;19.218;2023-05-10T05:01:46;12.27;;;6.25;;
68188;SDS011;66299;47.514;19.218;2023-05-10T05:07:01;12.77;;;6.55;;
68188;SDS011;66299;47.514;19.218;2023-05-10T05:09:30;13.70;;;6.20;;
68188;SDS011;66299;47.514;19.218;2023-05-10T05:12:04;12.40;;;6.82;;
68188;SDS011;66299;47.514;19.218;2023-05-10T05:14:34;13.48;;;6.72;;
68188;SDS011;66299;47.514;19.218;2023-05-10T05:17:10;14.90;;;6.47;;
68188;SDS011;66299;47.514;19.218;2023-05-10T05:19:41;16.65;;;7.10;;
68188;SDS011;66299;47.514;19.218;2023-05-10T05:22:12;12.32;;;6.38;;
68188;SDS011;66299;47.514;19.218;2023-05-10T05:24:41;12.05;;;6.30;;
68188;SDS011;66299;47.514;19.218;2023-05-10T05:27:27;12.05;;;6.28;;
68188;SDS011;66299;47.514;19.218;2023-05-10T05:29:58;11.55;;;6.35;;
68188;SDS011;66299;47.514;19.218;2023-05-10T05:32:31;13.30;;;6.38;;
68188;SDS011;66299;47.514;19.218;2023-05-10T05:35:02;12.68;;;6.25;;
68188;SDS011;66299;47.514;19.218;2023-05-10T05:37:33;12.60;;;6.60;;
68188;SDS011;66299;47.514;19.218;2023-05-10T05:40:02;13.07;;;6.50;;
68188;SDS011;66299;47.514;19.218;2023-05-10T05:42:37;13.55;;;6.32;;
68188;SDS011;66299;47.514;19.218;2023-05-10T05:45:06;11.18;;;6.40;;
68188;SDS011;66299;47.514;19.218;2023-05-10T05:47:42;12.43;;;6.57;;
68188;SDS011;66299;47.514;19.218;2023-05-10T05:50:24;15.60;;;6.70;;
68188;SDS011;66299;47.514;19.218;2023-05-10T05:52:52;13.73;;;6.82;;
68188;SDS011;66299;47.514;19.218;2023-05-10T05:55:22;13.23;;;6.40;;
68188;SDS011;66299;47.514;19.218;2023-05-10T05:57:54;12.45;;;6.32;;
68188;SDS011;66299;47.514;19.218;2023-05-10T06:00:26;13.82;;;6.63;;
68188;SDS011;66299;47.514;19.218;2023-05-10T06:02:54;17.05;;;6.45;;
68188;SDS011;66299;47.514;19.218;2023-05-10T06:05:25;12.82;;;6.40;;
68188;SDS011;66299;47.514;19.218;2023-05-10T06:07:54;15.23;;;6.65;;
68188;SDS011;66299;47.514;19.218;2023-05-10T06:10:24;12.38;;;6.80;;
68188;SDS011;66299;47.514;19.218;2023-05-10T06:12:58;12.48;;;6.40;;
68188;SDS011;66299;47.514;19.218;2023-05-10T06:15:32;13.05;;;6.03;;
68188;SDS011;66299;47.514;19.218;2023-05-10T06:18:01;11.73;;;6.15;;
68188;SDS011;66299;47.514;19.218;2023-05-10T06:20:32;13.32;;;6.60;;
68188;SDS011;66299;47.514;19.218;2023-05-10T06:23:00;12.68;;;6.10;;
68188;SDS011;66299;47.514;19.218;2023-05-10T06:25:28;11.27;;;5.90;;
68188;SDS011;66299;47.514;19.218;2023-05-10T06:28:00;11.82;;;6.10;;
68188;SDS011;66299;47.514;19.218;2023-05-10T06:30:33;13.48;;;5.90;;
68188;SDS011;66299;47.514;19.218;2023-05-10T06:33:02;12.38;;;6.10;;
68188;SDS011;66299;47.514;19.218;2023-05-10T06:35:32;12.00;;;6.22;;
68188;SDS011;66299;47.514;19.218;2023-05-10T06:38:01;13.18;;;6.20;;
68188;SDS011;66299;47.514;19.218;2023-05-10T06:40:32;12.52;;;6.35;;
68188;SDS011;66299;47.514;19.218;2023-05-10T06:43:03;12.18;;;6.10;;
68188;SDS011;66299;47.514;19.218;2023-05-10T06:45:32;19.83;;;5.85;;
68188;SDS011;66299;47.514;19.218;2023-05-10T06:48:02;11.63;;;6.10;;
68188;SDS011;66299;47.514;19.218;2023-05-10T06:50:33;12.30;;;6.40;;
68188;SDS011;66299;47.514;19.218;2023-05-10T06:53:22;15.18;;;6.25;;
68188;SDS011;66299;47.514;19.218;2023-05-10T06:55:55;13.63;;;6.00;;
68188;SDS011;66299;47.514;19.218;2023-05-10T06:58:27;13.10;;;5.57;;
68188;SDS011;66299;47.514;19.218;2023-05-10T07:01:01;17.90;;;5.75;;
68188;SDS011;66299;47.514;19.218;2023-05-10T07:03:31;11.80;;;5.70;;
68188;SDS011;66299;47.514;19.218;2023-05-10T07:06:02;11.95;;;5.70;;
68188;SDS011;66299;47.514;19.218;2023-05-10T07:08:32;10.88;;;5.80;;
68188;SDS011;66299;47.514;19.218;2023-05-10T07:11:00;11.00;;;5.63;;
68188;SDS011;66299;47.514;19.218;2023-05-10T07:13:34;11.80;;;5.60;;
68188;SDS011;66299;47.514;19.218;2023-05-10T07:16:07;10.93;;;5.90;;
68188;SDS011;66299;47.514;19.218;2023-05-10T07:18:38;13.45;;;6.20;;
68188;SDS011;66299;47.514;19.218;2023-05-10T07:21:06;10.80;;;5.80;;
68188;SDS011;66299;47.514;19.218;2023-05-10T07:23:35;13.27;;;5.82;;
68188;SDS011;66299;47.514;19.218;2023-05-10T07:26:09;11.10;;;5.72;;
68188;SDS011;66299;47.514;19.218;2023-05-10T07:28:39;15.38;;;6.35;;
68188;SDS011;66299;47.514;19.218;2023-05-10T07:31:11;13.18;;;6.10;;
68188;SDS011;66299;47.514;19.218;2023-05-10T07:33:40;11.80;;;5.78;;
68188;SDS011;66299;47.514;19.218;2023-05-10T07:36:14;15.70;;;5.70;;
68188;SDS011;66299;47.514;19.218;2023-05-10T07:38:45;23.90;;;5.93;;
68188;SDS011;66299;47.514;19.218;2023-05-10T07:41:14;14.25;;;5.57;;
68188;SDS011;66299;47.514;19.218;2023-05-10T07:43:44;10.00;;;5.38;;
68188;SDS011;66299;47.514;19.218;2023-05-10T07:46:13;13.15;;;5.18;;
68188;SDS011;66299;47.514;19.218;2023-05-10T07:48:42;9.70;;;5.07;;
68188;SDS011;66299;47.514;19.218;2023-05-10T07:51:11;11.73;;;5.20;;
68188;SDS011;66299;47.514;19.218;2023-05-10T07:53:41;11.07;;;5.30;;
68188;SDS011;66299;47.514;19.218;2023-05-10T07:56:21;11.98;;;5.38;;
68188;SDS011;66299;47.514;19.218;2023-05-10T07:58:55;13.00;;;5.18;;
68188;SDS011;66299;47.514;19.218;2023-05-10T08:01:30;9.90;;;5.38;;
68188;SDS011;66299;47.514;19.218;2023-05-10T08:04:04;11.38;;;5.05;;
68188;SDS011;66299;47.514;19.218;2023-05-10T08:06:34;12.15;;;5.18;;
68188;SDS011;66299;47.514;19.218;2023-05-10T08:09:02;11.45;;;5.30;;
68188;SDS011;66299;47.514;19.218;2023-05-10T08:11:32;11.98;;;5.32;;
68188;SDS011;66299;47.514;19.218;2023-05-10T08:14:08;12.10;;;5.10;;
68188;SDS011;66299;47.514;19.218;2023-05-10T08:16:42;9.48;;;4.90;;
68188;SDS011;66299;47.514;19.218;2023-05-10T08:19:13;11.93;;;4.80;;
68188;SDS011;66299;47.514;19.218;2023-05-10T08:21:45;12.43;;;5.00;;
68188;SDS011;66299;47.514;19.218;2023-05-10T08:24:16;10.75;;;4.95;;
68188;SDS011;66299;47.514;19.218;2023-05-10T08:26:46;12.68;;;4.80;;
68188;SDS011;66299;47.514;19.218;2023-05-10T08:29:17;9.25;;;4.53;;
68188;SDS011;66299;47.514;19.218;2023-05-10T08:34:16;10.75;;;4.68;;
68188;SDS011;66299;47.514;19.218;2023-05-10T08:36:45;16.65;;;4.82;;
68188;SDS011;66299;47.514;19.218;2023-05-10T08:39:13;12.80;;;4.78;;
68188;SDS011;66299;47.514;19.218;2023-05-10T08:41:57;13.95;;;4.60;;
68188;SDS011;66299;47.514;19.218;2023-05-10T08:44:34;10.68;;;4.70;;
68188;SDS011;66299;47.514;19.218;2023-05-10T08:47:04;12.02;;;4.75;;
68188;SDS011;66299;47.514;19.218;2023-05-10T08:49:36;10.00;;;4.72;;
68188;SDS011;66299;47.514;19.218;2023-05-10T08:52:05;9.02;;;4.47;;
68188;SDS011;66299;47.514;19.218;2023-05-10T08:54:35;11.98;;;4.63;;
68188;SDS011;66299;47.514;19.218;2023-05-10T08:57:04;10.38;;;4.55;;
68188;SDS011;66299;47.514;19.218;2023-05-10T08:59:35;12.63;;;4.30;;
68188;SDS011;66299;47.514;19.218;2023-05-10T09:02:09;11.43;;;4.32;;
68188;SDS011;66299;47.514;19.218;2023-05-10T09:04:44;10.52;;;4.47;;
68188;SDS011;66299;47.514;19.218;2023-05-10T09:07:13;9.20;;;4.47;;
68188;SDS011;66299;47.514;19.218;2023-05-10T09:09:43;11.75;;;4.70;;
68188;SDS011;66299;47.514;19.218;2023-05-10T09:12:16;10.23;;;4.40;;
68188;SDS011;66299;47.514;19.218;2023-05-10T09:14:46;9.35;;;4.32;;
68188;SDS011;66299;47.514;19.218;2023-05-10T09:17:14;9.93;;;4.47;;
68188;SDS011;66299;47.514;19.218;2023-05-10T09:19:44;12.00;;;4.25;;
68188;SDS011;66299;47.514;19.218;2023-05-10T09:22:15;8.98;;;4.22;;
68188;SDS011;66299;47.514;19.218;2023-05-10T09:24:50;11.52;;;4.20;;
68188;SDS011;66299;47.514;19.218;2023-05-10T09:27:31;11.52;;;4.03;;
68188;SDS011;66299;47.514;19.218;2023-05-10T09:30:01;11.95;;;4.00;;
68188;SDS011;66299;47.514;19.218;2023-05-10T09:32:37;8.95;;;3.95;;
68188;SDS011;66299;47.514;19.218;2023-05-10T09:35:10;13.05;;;4.45;;
68188;SDS011;66299;47.514;19.218;2023-05-10T09:37:41;11.52;;;4.40;;
68188;SDS011;66299;47.514;19.218;2023-05-10T09:40:13;9.23;;;4.07;;
68188;SDS011;66299;47.514;19.218;2023-05-10T09:42:50;9.30;;;4.18;;
68188;SDS011;66299;47.514;19.218;2023-05-10T09:45:22;9.55;;;4.05;;
68188;SDS011;66299;47.514;19.218;2023-05-10T09:47:52;10.50;;;3.78;;
68188;SDS011;66299;47.514;19.218;2023-05-10T09:50:22;10.80;;;3.88;;
68188;SDS011;66299;47.514;19.218;2023-05-10T09:52:58;9.13;;;3.72;;
68188;SDS011;66299;47.514;19.218;2023-05-10T09:55:37;10.30;;;3.88;;
68188;SDS011;66299;47.514;19.218;2023-05-10T09:58:09;10.77;;;3.90;;
68188;SDS011;66299;47.514;19.218;2023-05-10T10:00:40;9.63;;;3.60;;
68188;SDS011;66299;47.514;19.218;2023-05-10T10:03:12;9.20;;;3.70;;
68188;SDS011;66299;47.514;19.218;2023-05-10T10:05:48;8.20;;;3.58;;
68188;SDS011;66299;47.514;19.218;2023-05-10T10:08:21;8.65;;;3.58;;
68188;SDS011;66299;47.514;19.218;2023-05-10T10:10:54;12.77;;;3.40;;
68188;SDS011;66299;47.514;19.218;2023-05-10T10:13:27;10.30;;;3.55;;
68188;SDS011;66299;47.514;19.218;2023-05-10T10:16:01;9.43;;;3.10;;
68188;SDS011;66299;47.514;19.218;2023-05-10T10:18:31;8.60;;;3.38;;
68188;SDS011;66299;47.514;19.218;2023-05-10T10:21:07;7.95;;;3.33;;
68188;SDS011;66299;47.514;19.218;2023-05-10T10:23:38;10.20;;;3.42;;
68188;SDS011;66299;47.514;19.218;2023-05-10T10:26:10;9.30;;;3.40;;
68188;SDS011;66299;47.514;19.218;2023-05-10T10:28:50;11.13;;;3.50;;
68188;SDS011;66299;47.514;19.218;2023-05-10T10:31:32;8.23;;;3.30;;
68188;SDS011;66299;47.514;19.218;2023-05-10T10:34:07;11.35;;;3.08;;
68188;SDS011;66299;47.514;19.218;2023-05-10T10:36:42;8.30;;;3.10;;
68188;SDS011;66299;47.514;19.218;2023-05-10T10:39:13;7.40;;;2.88;;
68188;SDS011;66299;47.514;19.218;2023-05-10T10:44:35;8.32;;;3.20;;
68188;SDS011;66299;47.514;19.218;2023-05-10T10:47:23;7.80;;;3.10;;
68188;SDS011;66299;47.514;19.218;2023-05-10T10:50:06;7.35;;;2.83;;
68188;SDS011;66299;47.514;19.218;2023-05-10T10:52:37;10.05;;;2.83;;
68188;SDS011;66299;47.514;19.218;2023-05-10T10:55:07;6.93;;;2.90;;
68188;SDS011;66299;47.514;19.218;2023-05-10T10:57:44;18.30;;;3.70;;
68188;SDS011;66299;47.514;19.218;2023-05-10T11:00:18;9.07;;;3.13;;
68188;SDS011;66299;47.514;19.218;2023-05-10T11:02:55;11.15;;;3.00;;
68188;SDS011;66299;47.514;19.218;2023-05-10T11:08:14;9.30;;;3.00;;
68188;SDS011;66299;47.514;19.218;2023-05-10T11:13:39;9.60;;;2.90;;
68188;SDS011;66299;47.514;19.218;2023-05-10T11:16:15;7.30;;;2.85;;
68188;SDS011;66299;47.514;19.218;2023-05-10T11:19:00;11.63;;;3.30;;
68188;SDS011;66299;47.514;19.218;2023-05-10T11:21:34;8.27;;;3.03;;
68188;SDS011;66299;47.514;19.218;2023-05-10T11:24:17;7.57;;;2.80;;
68188;SDS011;66299;47.514;19.218;2023-05-10T11:26:52;7.38;;;2.97;;
68188;SDS011;66299;47.514;19.218;2023-05-10T11:29:24;9.82;;;2.88;;
68188;SDS011;66299;47.514;19.218;2023-05-10T11:31:59;10.23;;;3.40;;
68188;SDS011;66299;47.514;19.218;2023-05-10T11:34:39;7.68;;;2.78;;
68188;SDS011;66299;47.514;19.218;2023-05-10T11:37:09;13.52;;;3.67;;
68188;SDS011;66299;47.514;19.218;2023-05-10T11:39:38;7.90;;;2.78;;
68188;SDS011;66299;47.514;19.218;2023-05-10T11:42:07;8.80;;;2.67;;
68188;SDS011;66299;47.514;19.218;2023-05-10T11:44:38;7.45;;;2.80;;
68188;SDS011;66299;47.514;19.218;2023-05-10T11:47:09;8.03;;;2.57;;
68188;SDS011;66299;47.514;19.218;2023-05-10T11:49:44;8.80;;;2.63;;
68188;SDS011;66299;47.514;19.218;2023-05-10T11:52:13;9.05;;;2.70;;
68188;SDS011;66299;47.514;19.218;2023-05-10T11:54:44;10.90;;;2.75;;
68188;SDS011;66299;47.514;19.218;2023-05-10T11:57:19;8.27;;;2.60;;
68188;SDS011;66299;47.514;19.218;2023-05-10T11:59:50;6.75;;;2.53;;
68188;SDS011;66299;47.514;19.218;2023-05-10T12:02:22;8.38;;;2.67;;
68188;SDS011;66299;47.514;19.218;2023-05-10T12:04:59;8.52;;;2.55;;
68188;SDS011;66299;47.514;19.218;2023-05-10T12:07:34;11.75;;;2.65;;
68188;SDS011;66299;47.514;19.218;2023-05-10T12:10:07;8.23;;;2.63;;
68188;SDS011;66299;47.514;19.218;2023-05-10T12:12:45;8.20;;;2.65;;
68188;SDS011;66299;47.514;19.218;2023-05-10T12:15:17;7.63;;;2.90;;
68188;SDS011;66299;47.514;19.218;2023-05-10T12:17:48;11.63;;;2.80;;
68188;SDS011;66299;47.514;19.218;2023-05-10T12:20:24;8.95;;;2.67;;
68188;SDS011;66299;47.514;19.218;2023-05-10T12:22:58;10.00;;;2.60;;
68188;SDS011;66299;47.514;19.218;2023-05-10T12:25:31;12.63;;;2.63;;
68188;SDS011;66299;47.514;19.218;2023-05-10T12:28:04;8.98;;;2.60;;
68188;SDS011;66299;47.514;19.218;2023-05-10T12:30:37;8.10;;;2.47;;
68188;SDS011;66299;47.514;19.218;2023-05-10T12:33:09;11.95;;;2.60;;
68188;SDS011;66299;47.514;19.218;2023-05-10T12:35:47;10.43;;;2.50;;
68188;SDS011;66299;47.514;19.218;2023-05-10T12:38:25;8.55;;;2.50;;
68188;SDS011;66299;47.514;19.218;2023-05-10T12:40:56;7.85;;;2.60;;
68188;SDS011;66299;47.514;19.218;2023-05-10T12:43:26;9.98;;;2.70;;
68188;SDS011;66299;47.514;19.218;2023-05-10T12:48:27;8.77;;;2.78;;
68188;SDS011;66299;47.514;19.218;2023-05-10T12:51:04;6.90;;;2.60;;
68188;SDS011;66299;47.514;19.218;2023-05-10T12:53:36;7.82;;;2.67;;
68188;SDS011;66299;47.514;19.218;2023-05-10T12:56:11;10.27;;;2.80;;
68188;SDS011;66299;47.514;19.218;2023-05-10T12:58:39;8.23;;;2.40;;
68188;SDS011;66299;47.514;19.218;2023-05-10T13:01:12;7.22;;;2.50;;
68188;SDS011;66299;47.514;19.218;2023-05-10T13:06:12;9.43;;;2.30;;
68188;SDS011;66299;47.514;19.218;2023-05-10T13:08:41;7.28;;;2.40;;
68188;SDS011;66299;47.514;19.218;2023-05-10T13:11:10;7.00;;;2.40;;
68188;SDS011;66299;47.514;19.218;2023-05-10T13:13:44;11.52;;;2.50;;
68188;SDS011;66299;47.514;19.218;2023-05-10T13:16:18;11.35;;;2.33;;
68188;SDS011;66299;47.514;19.218;2023-05-10T13:18:47;9.93;;;2.80;;
68188;SDS011;66299;47.514;19.218;2023-05-10T13:21:17;8.77;;;2.40;;
68188;SDS011;66299;47.514;19.218;2023-05-10T13:23:49;8.20;;;2.55;;
68188;SDS011;66299;47.514;19.218;2023-05-10T13:26:18;6.80;;;2.40;;
68188;SDS011;66299;47.514;19.218;2023-05-10T13:28:48;5.70;;;2.22;;
68188;SDS011;66299;47.514;19.218;2023-05-10T13:31:18;9.70;;;2.40;;
68188;SDS011;66299;47.514;19.218;2023-05-10T13:33:49;9.13;;;2.40;;
68188;SDS011;66299;47.514;19.218;2023-05-10T13:36:22;8.82;;;2.30;;
68188;SDS011;66299;47.514;19.218;2023-05-10T13:38:50;6.82;;;2.20;;
68188;SDS011;66299;47.514;19.218;2023-05-10T13:41:22;6.55;;;2.22;;
68188;SDS011;66299;47.514;19.218;2023-05-10T13:43:59;7.55;;;2.30;;
68188;SDS011;66299;47.514;19.218;2023-05-10T13:46:30;6.15;;;2.30;;
68188;SDS011;66299;47.514;19.218;2023-05-10T13:48:59;7.72;;;2.20;;
68188;SDS011;66299;47.514;19.218;2023-05-10T13:51:28;8.52;;;2.30;;
68188;SDS011;66299;47.514;19.218;2023-05-10T13:53:58;6.13;;;2.20;;
68188;SDS011;66299;47.514;19.218;2023-05-10T13:56:27;7.18;;;2.35;;
68188;SDS011;66299;47.514;19.218;2023-05-10T13:58:56;7.22;;;2.30;;
68188;SDS011;66299;47.514;19.218;2023-05-10T14:01:25;12.48;;;2.30;;
68188;SDS011;66299;47.514;19.218;2023-05-10T14:03:54;8.32;;;2.20;;
68188;SDS011;66299;47.514;19.218;2023-05-10T14:06:29;7.18;;;2.47;;
68188;SDS011;66299;47.514;19.218;2023-05-10T14:08:58;9.27;;;2.13;;
68188;SDS011;66299;47.514;19.218;2023-05-10T14:11:26;5.30;;;2.08;;
68188;SDS011;66299;47.514;19.218;2023-05-10T14:13:55;6.95;;;2.20;;
68188;SDS011;66299;47.514;19.218;2023-05-10T14:16:24;7.50;;;2.50;;
68188;SDS011;66299;47.514;19.218;2023-05-10T14:18:54;7.40;;;2.42;;
68188;SDS011;66299;47.514;19.218;2023-05-10T14:21:23;7.05;;;2.20;;
68188;SDS011;66299;47.514;19.218;2023-05-10T14:23:53;7.75;;;2.40;;
68188;SDS011;66299;47.514;19.218;2023-05-10T14:26:29;7.68;;;2.10;;
68188;SDS011;66299;47.514;19.218;2023-05-10T14:28:59;12.60;;;2.13;;
68188;SDS011;66299;47.514;19.218;2023-05-10T14:31:28;7.05;;;2.20;;
68188;SDS011;66299;47.514;19.218;2023-05-10T14:33:57;15.10;;;2.35;;
68188;SDS011;66299;47.514;19.218;2023-05-10T14:36:31;10.52;;;2.10;;
68188;SDS011;66299;47.514;19.218;2023-05-10T14:39:01;9.48;;;2.13;;
68188;SDS011;66299;47.514;19.218;2023-05-10T14:41:30;5.55;;;2.00;;
68188;SDS011;66299;47.514;19.218;2023-05-10T14:44:03;9.05;;;2.22;;
68188;SDS011;66299;47.514;19.218;2023-05-10T14:46:35;9.50;;;2.10;;
68188;SDS011;66299;47.514;19.218;2023-05-10T14:49:04;5.47;;;2.00;;
68188;SDS011;66299;47.514;19.218;2023-05-10T14:51:33;9.35;;;2.15;;
68188;SDS011;66299;47.514;19.218;2023-05-10T14:54:05;8.13;;;2.00;;
68188;SDS011;66299;47.514;19.218;2023-05-10T14:56:34;10.38;;;2.17;;
68188;SDS011;66299;47.514;19.218;2023-05-10T14:59:12;6.13;;;1.95;;
68188;SDS011;66299;47.514;19.218;2023-05-10T15:01:44;8.57;;;2.00;;
68188;SDS011;66299;47.514;19.218;2023-05-10T15:04:14;11.40;;;2.13;;
68188;SDS011;66299;47.514;19.218;2023-05-10T15:06:46;6.25;;;2.20;;
68188;SDS011;66299;47.514;19.218;2023-05-10T15:09:18;7.45;;;2.10;;
68188;SDS011;66299;47.514;19.218;2023-05-10T15:11:47;11.00;;;2.08;;
68188;SDS011;66299;47.514;19.218;2023-05-10T15:14:17;7.40;;;2.00;;
68188;SDS011;66299;47.514;19.218;2023-05-10T15:16:45;8.73;;;1.90;;